Aérodrome :
LOGIN :

S'inscrire | Disclaimer

   EN    FR    IT 

 










Légende :    VFR   VFR Marginal   IFR   IFR Intensif   IFR Très Intensif
Visi : 
Plafond : 
>= 8 km
>= 3000ft
5 à 8 km
1000 à 3000 ft
1500m à 5 km
500 à 1000 ft
800 à 1500m
200 à 500 ft
< 800m
< 200 ft
Symboles :   Orages  Brouillard  Fortes neiges  Fortes précipitations  Vent > 20 kt
SIGMETs :   Divers  Orages  Givrage  Turbulence  Onde Orograph.  Cendres Volcan.







- Altitude de l'aérodrome : 100 ft


EBDT - Schaffen

DERNIER METAR :
  • 221955Z AUTO 31005KT 9999 NCD 13/11 Q1023 BLU

METARs EXPIRÉS :
  • 221925Z AUTO 32004KT 9999 NCD 13/11 Q1023 BLU
  • 221855Z AUTO 33005KT 9999 FEW085/// 14/11 Q1023 BLU
  • 221825Z AUTO 32005KT 9999 FEW045/// 14/12 Q1022 BLU
  • 221755Z AUTO 34004KT 9999 FEW021/// SCT032/// 15/12 Q1022 BLU
  • 221754Z AUTO 34004KT 9999 FEW021/// SCT032/// 15/13 Q1022 BLU
  • 221735Z AUTO 32005KT 9999 SCT021/// BKN033/// BKN060/// 16/13 Q1022 WHT
  • 221725Z AUTO 31005KT 9999 FEW022/// SCT041/// BKN060/// 16/13 Q1022 BLU

TAF TAF EBDT
Valide du 22 à 19h jusqu'au 23 à 07h UTC


221541Z 2219/2307 33005KT 8000 FEW020 SCT025
PROB40
TEMPO 2219/2302 VRB03KT 6000 SCT020
BECMG 2302/2304 13005KT 4000 BR SCT080 BKN100
TEMPO 2302/2307 500 FG BKN100
Pas de NOTAMs connus pour ce terrain.



MET'MAP, la Météo Aéronautique d'un coup d'oeil ! - Copyright ORBIFLY Décembre 2007 - Disclaimer

ORBIFLY MET'MAP TEAM :

Programmation & Développement : Alexandra Zaïnal
Conception & Développement : Baudouin d'Aumeries
Co-Programmation & Développement : Marc-Olivier Méhu
Soutien technique & logistique : Manuel Goepfert

Contact : metmap@orbifly.com




SOURCES & CREDITS :

   NOAA